Agadir, Morocco

6:21 PM WEST on August 20, 2014 (GMT +0100)
Al-Massira | Change Station
CLOSE
Current Station
Airport
Location: Agadir Al Massira,
Elevation: 243 ft
Nearby Weather Stations

Elev 243 ft 30.33 °N, 9.40 °W | Updated 1 hour ago

Partly Cloudy
Partly Cloudy
90 °F
Feels Like 90 °F
N
17
Wind Variable Wind from WSW

Today
High -- | Low -- °F
--% Chance of Precip.
Yesterday
High -- | Low -- °F
Precip. -- in
7:07 AM 8:14 PM
Waning Crescent, 20% visible
Pressure 29.92 in
Visibility 6.2 miles
Clouds Few 3000 ft
Heat Index 90 °F
Dew Point 61 °F
Humidity 38%
Rainfall 0.00 in
Snow Depth Not available.
UV 6 out of 12
Pollen Not available.
Air Quality Not available.
Flu Activity Not available.
METAR GMAD 201600Z 25015KT 9999 FEW030 32/16 Q1013 NOSIG

More Conditions Fewer Conditions

Pressure 29.92 in
Visibility 6.2 miles
Clouds Few 3000 ft
Heat Index 90 °F
Dew Point 61 °F
Humidity 38%
Rainfall 0.00 in
Snow Depth Not available.
UV 6 out of 12
Pollen Not available.
Air Quality Not available.
Flu Activity Not available.
METAR GMAD 201600Z 25015KT 9999 FEW030 32/16 Q1013 NOSIG

More Conditions Fewer Conditions

10-Day Weather Forecast

Almanac

Astronomy

Aug. 20, 2014 Rise Set
Actual Time 7:07 AM WEST 8:14 PM WEST
Civil Twilight 6:42 AM WEST 8:39 PM WEST
Nautical Twilight 6:13 AM WEST 9:09 PM WEST
Astronomical Twilight 5:42 AM WEST 9:39 PM WEST
Moon 2:44 AM WEST 4:42 PM WEST
Length of Visible Light 13h 56m
Length of Day
13h 06m
Tomorrow will be 1m 40s shorter.
Waning Crescent, 20% of the Moon is Illuminated
Today
Waning Crescent
Aug 25
New
Sep 2
First Quarter
Sep 8
Full
Sep 15
Last Quarter

Today's Extremes

Country Highs Country Lows

Community

WunderPhotos

Upload Photos

1,745,697 photos uploaded!

WunderBlogs® & News

By Dr. Jeff Masters
Director of Meteorology, Weather Underground
By Kari Strenfel
Meteorologist, Weather Underground
By Christopher C. Burt
Weather Historian, Weather Underground
August 20, 2014
August 20, 2014
August 20, 2014

Nearby

Snow Depth

Not available.

Earthquake Activity

City Distance Mag. Time & Date
No recent earthquake activity has been reported nearby.
Minimum magnitude displayed is 2.5.

Coastal Water Temperatures

Place Temperature
No Stations Reporting

Nearby Weather Stations